sensor_id;sensor_type;location;lat;lon;timestamp;P1;durP1;ratioP1;P2;durP2;ratioP2
56043;SDS011;41912;51.022;3.664;2022-12-18T00:01:13;74.38;;;33.88;;
56043;SDS011;41912;51.022;3.664;2022-12-18T00:03:44;76.32;;;34.75;;
56043;SDS011;41912;51.022;3.664;2022-12-18T00:06:11;72.18;;;32.08;;
56043;SDS011;41912;51.022;3.664;2022-12-18T00:08:37;73.47;;;33.67;;
56043;SDS011;41912;51.022;3.664;2022-12-18T00:11:07;79.65;;;33.97;;
56043;SDS011;41912;51.022;3.664;2022-12-18T00:13:34;72.97;;;34.33;;
56043;SDS011;41912;51.022;3.664;2022-12-18T00:16:07;75.90;;;31.80;;
56043;SDS011;41912;51.022;3.664;2022-12-18T00:18:36;68.05;;;31.27;;
56043;SDS011;41912;51.022;3.664;2022-12-18T00:21:03;77.80;;;33.95;;
56043;SDS011;41912;51.022;3.664;2022-12-18T00:23:30;81.38;;;34.15;;
56043;SDS011;41912;51.022;3.664;2022-12-18T00:26:06;75.60;;;33.85;;
56043;SDS011;41912;51.022;3.664;2022-12-18T00:28:35;69.95;;;32.58;;
56043;SDS011;41912;51.022;3.664;2022-12-18T00:33:27;72.70;;;32.70;;
56043;SDS011;41912;51.022;3.664;2022-12-18T00:35:53;81.60;;;34.33;;
56043;SDS011;41912;51.022;3.664;2022-12-18T00:38:18;73.43;;;33.63;;
56043;SDS011;41912;51.022;3.664;2022-12-18T00:40:44;74.40;;;34.35;;
56043;SDS011;41912;51.022;3.664;2022-12-18T00:43:10;79.95;;;33.28;;
56043;SDS011;41912;51.022;3.664;2022-12-18T00:45:35;78.43;;;35.00;;
56043;SDS011;41912;51.022;3.664;2022-12-18T00:48:01;66.82;;;32.20;;
56043;SDS011;41912;51.022;3.664;2022-12-18T00:50:26;73.70;;;34.35;;
56043;SDS011;41912;51.022;3.664;2022-12-18T00:52:52;68.60;;;32.55;;
56043;SDS011;41912;51.022;3.664;2022-12-18T00:55:18;73.38;;;33.22;;
56043;SDS011;41912;51.022;3.664;2022-12-18T00:57:43;78.18;;;35.10;;
56043;SDS011;41912;51.022;3.664;2022-12-18T01:00:11;88.32;;;39.75;;
56043;SDS011;41912;51.022;3.664;2022-12-18T01:02:38;84.70;;;36.00;;
56043;SDS011;41912;51.022;3.664;2022-12-18T01:05:04;85.45;;;36.92;;
56043;SDS011;41912;51.022;3.664;2022-12-18T01:07:30;79.32;;;36.40;;
56043;SDS011;41912;51.022;3.664;2022-12-18T01:09:56;82.28;;;37.80;;
56043;SDS011;41912;51.022;3.664;2022-12-18T01:12:21;82.88;;;36.47;;
56043;SDS011;41912;51.022;3.664;2022-12-18T01:14:47;81.22;;;38.65;;
56043;SDS011;41912;51.022;3.664;2022-12-18T01:17:12;81.10;;;35.97;;
56043;SDS011;41912;51.022;3.664;2022-12-18T01:19:38;82.32;;;36.70;;
56043;SDS011;41912;51.022;3.664;2022-12-18T01:22:04;89.82;;;39.72;;
56043;SDS011;41912;51.022;3.664;2022-12-18T01:24:29;84.18;;;36.08;;
56043;SDS011;41912;51.022;3.664;2022-12-18T01:26:55;82.40;;;36.58;;
56043;SDS011;41912;51.022;3.664;2022-12-18T01:29:22;79.57;;;36.85;;
56043;SDS011;41912;51.022;3.664;2022-12-18T01:31:48;82.30;;;35.42;;
56043;SDS011;41912;51.022;3.664;2022-12-18T01:34:13;87.90;;;38.55;;
56043;SDS011;41912;51.022;3.664;2022-12-18T01:36:39;84.57;;;37.58;;
56043;SDS011;41912;51.022;3.664;2022-12-18T01:39:13;76.30;;;37.40;;
56043;SDS011;41912;51.022;3.664;2022-12-18T01:41:39;93.15;;;38.15;;
56043;SDS011;41912;51.022;3.664;2022-12-18T01:47:33;84.03;;;36.15;;
56043;SDS011;41912;51.022;3.664;2022-12-18T01:50:16;81.22;;;36.33;;
56043;SDS011;41912;51.022;3.664;2022-12-18T01:55:35;87.20;;;38.63;;
56043;SDS011;41912;51.022;3.664;2022-12-18T01:58:06;84.03;;;36.83;;
56043;SDS011;41912;51.022;3.664;2022-12-18T02:00:32;81.68;;;35.55;;
56043;SDS011;41912;51.022;3.664;2022-12-18T02:02:58;89.38;;;37.55;;
56043;SDS011;41912;51.022;3.664;2022-12-18T02:08:20;79.63;;;34.70;;
56043;SDS011;41912;51.022;3.664;2022-12-18T02:16:30;78.32;;;34.60;;
56043;SDS011;41912;51.022;3.664;2022-12-18T02:27:42;80.43;;;36.53;;
56043;SDS011;41912;51.022;3.664;2022-12-18T02:30:11;80.40;;;36.58;;
56043;SDS011;41912;51.022;3.664;2022-12-18T02:32:39;83.80;;;37.03;;
56043;SDS011;41912;51.022;3.664;2022-12-18T02:35:10;79.22;;;34.40;;
56043;SDS011;41912;51.022;3.664;2022-12-18T02:37:42;84.93;;;36.20;;
56043;SDS011;41912;51.022;3.664;2022-12-18T02:40:10;81.88;;;35.83;;
56043;SDS011;41912;51.022;3.664;2022-12-18T02:42:38;98.03;;;35.88;;
56043;SDS011;41912;51.022;3.664;2022-12-18T02:45:04;85.28;;;36.53;;
56043;SDS011;41912;51.022;3.664;2022-12-18T02:47:31;87.18;;;35.95;;
56043;SDS011;41912;51.022;3.664;2022-12-18T02:50:44;87.90;;;37.38;;
56043;SDS011;41912;51.022;3.664;2022-12-18T02:55:20;97.75;;;37.80;;
56043;SDS011;41912;51.022;3.664;2022-12-18T02:57:53;84.87;;;38.43;;
56043;SDS011;41912;51.022;3.664;2022-12-18T03:00:23;81.78;;;36.83;;
56043;SDS011;41912;51.022;3.664;2022-12-18T03:02:57;79.63;;;35.15;;
56043;SDS011;41912;51.022;3.664;2022-12-18T03:06:02;81.57;;;33.17;;
56043;SDS011;41912;51.022;3.664;2022-12-18T03:08:57;70.35;;;32.53;;
56043;SDS011;41912;51.022;3.664;2022-12-18T03:11:36;76.28;;;32.38;;
56043;SDS011;41912;51.022;3.664;2022-12-18T03:14:23;81.50;;;34.20;;
56043;SDS011;41912;51.022;3.664;2022-12-18T03:16:54;72.85;;;32.22;;
56043;SDS011;41912;51.022;3.664;2022-12-18T03:19:24;77.90;;;33.53;;
56043;SDS011;41912;51.022;3.664;2022-12-18T03:21:54;74.93;;;32.27;;
56043;SDS011;41912;51.022;3.664;2022-12-18T03:24:22;76.72;;;33.88;;
56043;SDS011;41912;51.022;3.664;2022-12-18T03:26:50;77.05;;;33.03;;
56043;SDS011;41912;51.022;3.664;2022-12-18T03:29:21;84.05;;;34.67;;
56043;SDS011;41912;51.022;3.664;2022-12-18T03:31:51;79.15;;;34.42;;
56043;SDS011;41912;51.022;3.664;2022-12-18T03:34:22;78.80;;;34.03;;
56043;SDS011;41912;51.022;3.664;2022-12-18T03:36:51;77.57;;;34.08;;
56043;SDS011;41912;51.022;3.664;2022-12-18T03:39:17;82.05;;;33.40;;
56043;SDS011;41912;51.022;3.664;2022-12-18T03:41:43;78.53;;;32.88;;
56043;SDS011;41912;51.022;3.664;2022-12-18T03:52:20;75.40;;;31.73;;
56043;SDS011;41912;51.022;3.664;2022-12-18T03:54:53;81.38;;;34.65;;
56043;SDS011;41912;51.022;3.664;2022-12-18T03:57:22;74.45;;;33.30;;
56043;SDS011;41912;51.022;3.664;2022-12-18T03:59:55;81.80;;;33.92;;
56043;SDS011;41912;51.022;3.664;2022-12-18T04:02:27;75.47;;;30.88;;
56043;SDS011;41912;51.022;3.664;2022-12-18T04:04:55;78.75;;;31.67;;
56043;SDS011;41912;51.022;3.664;2022-12-18T04:07:24;83.45;;;32.28;;
56043;SDS011;41912;51.022;3.664;2022-12-18T04:09:50;74.53;;;31.02;;
56043;SDS011;41912;51.022;3.664;2022-12-18T04:12:19;82.85;;;32.65;;
56043;SDS011;41912;51.022;3.664;2022-12-18T04:14:45;75.18;;;30.15;;
56043;SDS011;41912;51.022;3.664;2022-12-18T04:17:10;72.15;;;29.60;;
56043;SDS011;41912;51.022;3.664;2022-12-18T04:19:36;69.97;;;29.42;;
56043;SDS011;41912;51.022;3.664;2022-12-18T04:22:02;63.58;;;26.73;;
56043;SDS011;41912;51.022;3.664;2022-12-18T04:24:27;63.28;;;26.65;;
56043;SDS011;41912;51.022;3.664;2022-12-18T04:26:53;58.33;;;25.85;;
56043;SDS011;41912;51.022;3.664;2022-12-18T04:29:19;71.60;;;29.02;;
56043;SDS011;41912;51.022;3.664;2022-12-18T04:31:45;65.43;;;26.15;;
56043;SDS011;41912;51.022;3.664;2022-12-18T04:34:10;58.85;;;25.48;;
56043;SDS011;41912;51.022;3.664;2022-12-18T04:36:36;61.03;;;25.00;;
56043;SDS011;41912;51.022;3.664;2022-12-18T04:39:02;58.22;;;23.27;;
56043;SDS011;41912;51.022;3.664;2022-12-18T04:41:27;57.33;;;24.83;;
56043;SDS011;41912;51.022;3.664;2022-12-18T04:43:53;56.28;;;22.83;;
56043;SDS011;41912;51.022;3.664;2022-12-18T04:46:19;46.78;;;21.63;;
56043;SDS011;41912;51.022;3.664;2022-12-18T04:48:45;54.97;;;23.25;;
56043;SDS011;41912;51.022;3.664;2022-12-18T04:51:11;55.55;;;23.35;;
56043;SDS011;41912;51.022;3.664;2022-12-18T04:53:37;54.72;;;23.85;;
56043;SDS011;41912;51.022;3.664;2022-12-18T04:56:07;56.28;;;24.13;;
56043;SDS011;41912;51.022;3.664;2022-12-18T04:58:35;57.70;;;24.23;;
56043;SDS011;41912;51.022;3.664;2022-12-18T05:01:01;54.67;;;23.92;;
56043;SDS011;41912;51.022;3.664;2022-12-18T05:03:27;62.97;;;26.02;;
56043;SDS011;41912;51.022;3.664;2022-12-18T05:05:53;56.33;;;23.13;;
56043;SDS011;41912;51.022;3.664;2022-12-18T05:08:18;55.42;;;23.10;;
56043;SDS011;41912;51.022;3.664;2022-12-18T05:10:44;62.83;;;24.80;;
56043;SDS011;41912;51.022;3.664;2022-12-18T05:13:10;56.50;;;23.30;;
56043;SDS011;41912;51.022;3.664;2022-12-18T05:15:35;53.70;;;22.33;;
56043;SDS011;41912;51.022;3.664;2022-12-18T05:18:02;56.63;;;22.58;;
56043;SDS011;41912;51.022;3.664;2022-12-18T05:20:28;57.30;;;22.58;;
56043;SDS011;41912;51.022;3.664;2022-12-18T05:22:54;53.28;;;23.20;;
56043;SDS011;41912;51.022;3.664;2022-12-18T05:25:21;56.70;;;22.48;;
56043;SDS011;41912;51.022;3.664;2022-12-18T05:27:47;50.30;;;22.65;;
56043;SDS011;41912;51.022;3.664;2022-12-18T05:30:13;50.10;;;20.98;;
56043;SDS011;41912;51.022;3.664;2022-12-18T05:32:40;50.78;;;21.48;;
56043;SDS011;41912;51.022;3.664;2022-12-18T05:35:06;56.05;;;22.83;;
56043;SDS011;41912;51.022;3.664;2022-12-18T05:37:33;53.65;;;22.02;;
56043;SDS011;41912;51.022;3.664;2022-12-18T05:39:59;47.38;;;20.75;;
56043;SDS011;41912;51.022;3.664;2022-12-18T05:42:25;57.38;;;23.48;;
56043;SDS011;41912;51.022;3.664;2022-12-18T05:44:50;47.83;;;21.33;;
56043;SDS011;41912;51.022;3.664;2022-12-18T05:47:16;54.60;;;22.23;;
56043;SDS011;41912;51.022;3.664;2022-12-18T05:49:42;44.22;;;20.90;;
56043;SDS011;41912;51.022;3.664;2022-12-18T05:52:07;51.90;;;23.08;;
56043;SDS011;41912;51.022;3.664;2022-12-18T05:54:33;52.58;;;22.35;;
56043;SDS011;41912;51.022;3.664;2022-12-18T05:56:59;47.85;;;20.88;;
56043;SDS011;41912;51.022;3.664;2022-12-18T05:59:25;53.75;;;22.23;;
56043;SDS011;41912;51.022;3.664;2022-12-18T06:01:50;61.38;;;22.52;;
56043;SDS011;41912;51.022;3.664;2022-12-18T06:04:16;53.78;;;22.52;;
56043;SDS011;41912;51.022;3.664;2022-12-18T06:06:42;50.25;;;21.58;;
56043;SDS011;41912;51.022;3.664;2022-12-18T06:09:07;52.28;;;21.35;;
56043;SDS011;41912;51.022;3.664;2022-12-18T06:11:35;53.25;;;22.50;;
56043;SDS011;41912;51.022;3.664;2022-12-18T06:14:02;53.80;;;22.48;;
56043;SDS011;41912;51.022;3.664;2022-12-18T06:16:29;52.42;;;21.60;;
56043;SDS011;41912;51.022;3.664;2022-12-18T06:18:59;48.55;;;20.50;;
56043;SDS011;41912;51.022;3.664;2022-12-18T06:21:26;47.40;;;20.20;;
56043;SDS011;41912;51.022;3.664;2022-12-18T06:23:52;56.00;;;22.65;;
56043;SDS011;41912;51.022;3.664;2022-12-18T06:26:18;48.10;;;20.27;;
56043;SDS011;41912;51.022;3.664;2022-12-18T06:28:44;50.47;;;19.30;;
56043;SDS011;41912;51.022;3.664;2022-12-18T06:31:10;54.08;;;20.83;;
56043;SDS011;41912;51.022;3.664;2022-12-18T06:33:37;49.88;;;21.33;;
56043;SDS011;41912;51.022;3.664;2022-12-18T06:36:03;49.95;;;21.23;;
56043;SDS011;41912;51.022;3.664;2022-12-18T06:38:34;44.22;;;20.13;;
56043;SDS011;41912;51.022;3.664;2022-12-18T06:41:05;51.42;;;20.52;;
56043;SDS011;41912;51.022;3.664;2022-12-18T06:43:35;50.92;;;21.02;;
56043;SDS011;41912;51.022;3.664;2022-12-18T06:46:01;44.70;;;19.67;;
56043;SDS011;41912;51.022;3.664;2022-12-18T06:48:28;45.38;;;20.40;;
56043;SDS011;41912;51.022;3.664;2022-12-18T06:50:54;50.35;;;21.60;;
56043;SDS011;41912;51.022;3.664;2022-12-18T06:53:20;49.63;;;20.73;;
56043;SDS011;41912;51.022;3.664;2022-12-18T06:55:46;51.88;;;20.65;;
56043;SDS011;41912;51.022;3.664;2022-12-18T06:58:11;52.55;;;20.15;;
56043;SDS011;41912;51.022;3.664;2022-12-18T07:00:37;44.67;;;19.67;;
56043;SDS011;41912;51.022;3.664;2022-12-18T07:03:03;47.65;;;19.98;;
56043;SDS011;41912;51.022;3.664;2022-12-18T07:05:29;50.00;;;20.75;;
56043;SDS011;41912;51.022;3.664;2022-12-18T07:07:54;42.97;;;18.95;;
56043;SDS011;41912;51.022;3.664;2022-12-18T07:10:20;43.63;;;19.75;;
56043;SDS011;41912;51.022;3.664;2022-12-18T07:12:46;44.00;;;19.02;;
56043;SDS011;41912;51.022;3.664;2022-12-18T07:15:12;45.08;;;19.67;;
56043;SDS011;41912;51.022;3.664;2022-12-18T07:17:37;49.65;;;20.50;;
56043;SDS011;41912;51.022;3.664;2022-12-18T07:20:03;48.63;;;20.58;;
56043;SDS011;41912;51.022;3.664;2022-12-18T07:22:29;39.40;;;19.33;;
56043;SDS011;41912;51.022;3.664;2022-12-18T07:24:55;48.70;;;19.67;;
56043;SDS011;41912;51.022;3.664;2022-12-18T07:27:21;43.78;;;18.30;;
56043;SDS011;41912;51.022;3.664;2022-12-18T07:29:47;45.00;;;19.00;;
56043;SDS011;41912;51.022;3.664;2022-12-18T07:32:13;44.35;;;18.67;;
56043;SDS011;41912;51.022;3.664;2022-12-18T07:34:39;41.85;;;18.55;;
56043;SDS011;41912;51.022;3.664;2022-12-18T07:37:04;38.70;;;17.45;;
56043;SDS011;41912;51.022;3.664;2022-12-18T07:39:30;43.15;;;18.33;;
56043;SDS011;41912;51.022;3.664;2022-12-18T07:41:56;41.70;;;19.35;;
56043;SDS011;41912;51.022;3.664;2022-12-18T07:44:40;41.72;;;17.70;;
56043;SDS011;41912;51.022;3.664;2022-12-18T07:47:06;46.20;;;17.42;;
56043;SDS011;41912;51.022;3.664;2022-12-18T07:49:31;48.92;;;19.10;;
56043;SDS011;41912;51.022;3.664;2022-12-18T07:51:57;38.95;;;17.60;;
56043;SDS011;41912;51.022;3.664;2022-12-18T07:54:23;39.38;;;17.27;;
56043;SDS011;41912;51.022;3.664;2022-12-18T07:56:50;38.70;;;18.42;;
56043;SDS011;41912;51.022;3.664;2022-12-18T07:59:17;39.42;;;17.17;;
56043;SDS011;41912;51.022;3.664;2022-12-18T08:01:43;38.40;;;16.38;;
56043;SDS011;41912;51.022;3.664;2022-12-18T08:04:08;37.67;;;17.42;;
56043;SDS011;41912;51.022;3.664;2022-12-18T08:06:34;40.97;;;17.52;;
56043;SDS011;41912;51.022;3.664;2022-12-18T08:09:00;43.13;;;17.95;;
56043;SDS011;41912;51.022;3.664;2022-12-18T08:11:26;39.85;;;17.52;;
56043;SDS011;41912;51.022;3.664;2022-12-18T08:13:53;42.03;;;17.55;;
56043;SDS011;41912;51.022;3.664;2022-12-18T08:16:19;37.10;;;16.75;;
56043;SDS011;41912;51.022;3.664;2022-12-18T08:18:45;38.38;;;17.30;;
56043;SDS011;41912;51.022;3.664;2022-12-18T08:21:22;37.78;;;15.77;;
56043;SDS011;41912;51.022;3.664;2022-12-18T08:23:49;37.40;;;16.25;;
56043;SDS011;41912;51.022;3.664;2022-12-18T08:26:16;34.92;;;15.45;;
56043;SDS011;41912;51.022;3.664;2022-12-18T08:28:42;39.17;;;16.05;;
56043;SDS011;41912;51.022;3.664;2022-12-18T08:31:08;34.88;;;15.85;;
56043;SDS011;41912;51.022;3.664;2022-12-18T08:33:34;36.20;;;16.27;;
56043;SDS011;41912;51.022;3.664;2022-12-18T08:36:02;35.28;;;16.95;;
56043;SDS011;41912;51.022;3.664;2022-12-18T08:38:28;38.05;;;17.55;;
56043;SDS011;41912;51.022;3.664;2022-12-18T08:41:04;38.63;;;17.52;;
56043;SDS011;41912;51.022;3.664;2022-12-18T08:43:31;37.78;;;17.63;;
56043;SDS011;41912;51.022;3.664;2022-12-18T08:46:15;40.50;;;18.02;;
56043;SDS011;41912;51.022;3.664;2022-12-18T08:48:41;43.35;;;18.55;;
56043;SDS011;41912;51.022;3.664;2022-12-18T08:51:07;35.88;;;17.55;;
56043;SDS011;41912;51.022;3.664;2022-12-18T08:53:34;39.42;;;18.75;;
56043;SDS011;41912;51.022;3.664;2022-12-18T08:56:03;36.22;;;18.25;;
56043;SDS011;41912;51.022;3.664;2022-12-18T08:58:30;43.15;;;18.48;;
56043;SDS011;41912;51.022;3.664;2022-12-18T09:01:02;39.50;;;18.77;;
56043;SDS011;41912;51.022;3.664;2022-12-18T09:03:30;38.15;;;15.68;;
56043;SDS011;41912;51.022;3.664;2022-12-18T09:05:56;32.53;;;17.77;;
56043;SDS011;41912;51.022;3.664;2022-12-18T09:08:21;41.42;;;17.50;;
56043;SDS011;41912;51.022;3.664;2022-12-18T09:10:48;37.70;;;16.77;;
56043;SDS011;41912;51.022;3.664;2022-12-18T09:13:15;39.38;;;17.70;;
56043;SDS011;41912;51.022;3.664;2022-12-18T09:15:46;35.85;;;16.70;;
56043;SDS011;41912;51.022;3.664;2022-12-18T09:18:13;37.93;;;18.00;;
56043;SDS011;41912;51.022;3.664;2022-12-18T09:20:40;38.83;;;17.63;;
56043;SDS011;41912;51.022;3.664;2022-12-18T09:23:06;33.47;;;16.13;;
56043;SDS011;41912;51.022;3.664;2022-12-18T09:25:32;39.40;;;15.88;;
56043;SDS011;41912;51.022;3.664;2022-12-18T09:28:01;32.03;;;15.60;;
56043;SDS011;41912;51.022;3.664;2022-12-18T09:30:27;33.85;;;15.85;;
56043;SDS011;41912;51.022;3.664;2022-12-18T09:32:53;34.88;;;15.77;;
56043;SDS011;41912;51.022;3.664;2022-12-18T09:35:18;31.00;;;15.65;;
56043;SDS011;41912;51.022;3.664;2022-12-18T09:37:44;35.63;;;15.45;;
56043;SDS011;41912;51.022;3.664;2022-12-18T09:40:13;29.67;;;14.30;;
56043;SDS011;41912;51.022;3.664;2022-12-18T09:42:41;31.30;;;16.77;;
56043;SDS011;41912;51.022;3.664;2022-12-18T09:45:13;31.58;;;15.10;;
56043;SDS011;41912;51.022;3.664;2022-12-18T09:47:41;34.08;;;15.68;;
56043;SDS011;41912;51.022;3.664;2022-12-18T09:50:27;36.30;;;16.70;;
56043;SDS011;41912;51.022;3.664;2022-12-18T09:52:58;33.60;;;15.35;;
56043;SDS011;41912;51.022;3.664;2022-12-18T09:55:39;31.10;;;15.50;;
56043;SDS011;41912;51.022;3.664;2022-12-18T10:00:39;34.70;;;16.10;;
56043;SDS011;41912;51.022;3.664;2022-12-18T10:03:12;33.78;;;15.32;;
56043;SDS011;41912;51.022;3.664;2022-12-18T10:08:17;29.30;;;14.65;;
56043;SDS011;41912;51.022;3.664;2022-12-18T10:10:52;35.55;;;15.88;;
56043;SDS011;41912;51.022;3.664;2022-12-18T10:13:21;31.95;;;16.45;;
56043;SDS011;41912;51.022;3.664;2022-12-18T10:29:44;31.08;;;14.38;;
56043;SDS011;41912;51.022;3.664;2022-12-18T10:32:30;31.38;;;15.10;;
56043;SDS011;41912;51.022;3.664;2022-12-18T10:34:58;35.33;;;16.00;;
56043;SDS011;41912;51.022;3.664;2022-12-18T10:37:25;30.48;;;14.18;;
56043;SDS011;41912;51.022;3.664;2022-12-18T10:40:06;30.92;;;15.93;;
56043;SDS011;41912;51.022;3.664;2022-12-18T10:42:34;28.85;;;14.60;;
56043;SDS011;41912;51.022;3.664;2022-12-18T10:45:01;32.35;;;14.90;;
56043;SDS011;41912;51.022;3.664;2022-12-18T10:47:41;33.65;;;15.32;;
56043;SDS011;41912;51.022;3.664;2022-12-18T10:52:53;35.03;;;15.77;;
56043;SDS011;41912;51.022;3.664;2022-12-18T10:55:33;35.67;;;16.90;;
56043;SDS011;41912;51.022;3.664;2022-12-18T10:58:16;30.63;;;15.90;;
56043;SDS011;41912;51.022;3.664;2022-12-18T11:03:34;36.80;;;16.60;;
56043;SDS011;41912;51.022;3.664;2022-12-18T11:06:03;32.45;;;15.48;;
56043;SDS011;41912;51.022;3.664;2022-12-18T11:08:30;32.15;;;15.05;;
56043;SDS011;41912;51.022;3.664;2022-12-18T11:10:56;33.40;;;16.08;;
56043;SDS011;41912;51.022;3.664;2022-12-18T11:13:23;29.45;;;14.38;;
56043;SDS011;41912;51.022;3.664;2022-12-18T11:15:51;32.42;;;14.82;;
56043;SDS011;41912;51.022;3.664;2022-12-18T11:21:08;28.98;;;14.48;;
56043;SDS011;41912;51.022;3.664;2022-12-18T11:23:49;32.58;;;14.60;;
56043;SDS011;41912;51.022;3.664;2022-12-18T11:26:17;28.95;;;14.02;;
56043;SDS011;41912;51.022;3.664;2022-12-18T11:28:47;30.38;;;14.40;;
56043;SDS011;41912;51.022;3.664;2022-12-18T11:31:24;35.15;;;14.85;;
56043;SDS011;41912;51.022;3.664;2022-12-18T11:34:00;31.17;;;14.52;;
56043;SDS011;41912;51.022;3.664;2022-12-18T11:36:28;31.67;;;14.57;;
56043;SDS011;41912;51.022;3.664;2022-12-18T11:38:58;32.70;;;17.00;;
56043;SDS011;41912;51.022;3.664;2022-12-18T11:41:32;32.40;;;15.40;;
56043;SDS011;41912;51.022;3.664;2022-12-18T11:44:32;32.17;;;14.23;;
56043;SDS011;41912;51.022;3.664;2022-12-18T11:49:54;33.70;;;15.98;;
56043;SDS011;41912;51.022;3.664;2022-12-18T11:52:26;30.42;;;14.77;;
56043;SDS011;41912;51.022;3.664;2022-12-18T11:55:01;27.88;;;14.93;;
56043;SDS011;41912;51.022;3.664;2022-12-18T11:57:39;35.60;;;17.00;;
56043;SDS011;41912;51.022;3.664;2022-12-18T12:00:19;33.38;;;16.10;;
56043;SDS011;41912;51.022;3.664;2022-12-18T12:06:00;35.88;;;16.45;;
56043;SDS011;41912;51.022;3.664;2022-12-18T12:20:02;37.90;;;18.20;;
56043;SDS011;41912;51.022;3.664;2022-12-18T12:33:36;41.60;;;18.83;;
56043;SDS011;41912;51.022;3.664;2022-12-18T12:36:19;40.58;;;20.10;;
56043;SDS011;41912;51.022;3.664;2022-12-18T12:38:47;49.05;;;21.85;;
56043;SDS011;41912;51.022;3.664;2022-12-18T12:41:20;42.90;;;20.85;;
56043;SDS011;41912;51.022;3.664;2022-12-18T12:44:09;45.50;;;20.67;;
56043;SDS011;41912;51.022;3.664;2022-12-18T12:46:41;44.55;;;20.48;;
56043;SDS011;41912;51.022;3.664;2022-12-18T12:49:15;42.35;;;20.40;;
56043;SDS011;41912;51.022;3.664;2022-12-18T12:51:50;45.50;;;20.52;;
56043;SDS011;41912;51.022;3.664;2022-12-18T12:54:23;52.70;;;21.98;;
56043;SDS011;41912;51.022;3.664;2022-12-18T12:57:00;49.13;;;21.45;;
56043;SDS011;41912;51.022;3.664;2022-12-18T13:02:04;46.78;;;22.02;;
56043;SDS011;41912;51.022;3.664;2022-12-18T13:04:49;56.03;;;21.75;;
56043;SDS011;41912;51.022;3.664;2022-12-18T13:12:56;51.28;;;22.85;;
56043;SDS011;41912;51.022;3.664;2022-12-18T13:15:36;50.80;;;23.48;;
56043;SDS011;41912;51.022;3.664;2022-12-18T13:20:34;55.13;;;23.55;;
56043;SDS011;41912;51.022;3.664;2022-12-18T13:23:01;56.53;;;23.48;;
56043;SDS011;41912;51.022;3.664;2022-12-18T13:25:44;57.58;;;23.83;;
56043;SDS011;41912;51.022;3.664;2022-12-18T13:28:13;53.65;;;22.55;;
56043;SDS011;41912;51.022;3.664;2022-12-18T13:38:21;52.80;;;22.70;;
56043;SDS011;41912;51.022;3.664;2022-12-18T13:40:53;50.72;;;22.45;;
56043;SDS011;41912;51.022;3.664;2022-12-18T13:46:05;50.47;;;22.52;;
56043;SDS011;41912;51.022;3.664;2022-12-18T13:48:36;52.45;;;22.45;;
56043;SDS011;41912;51.022;3.664;2022-12-18T13:51:07;53.13;;;24.30;;
56043;SDS011;41912;51.022;3.664;2022-12-18T13:53:42;52.92;;;22.77;;
56043;SDS011;41912;51.022;3.664;2022-12-18T13:56:17;52.47;;;23.35;;
56043;SDS011;41912;51.022;3.664;2022-12-18T13:59:02;52.17;;;23.02;;
56043;SDS011;41912;51.022;3.664;2022-12-18T14:01:35;49.03;;;22.15;;
56043;SDS011;41912;51.022;3.664;2022-12-18T14:04:10;50.30;;;22.65;;
56043;SDS011;41912;51.022;3.664;2022-12-18T14:06:44;52.55;;;22.95;;
56043;SDS011;41912;51.022;3.664;2022-12-18T14:09:15;53.60;;;23.23;;
56043;SDS011;41912;51.022;3.664;2022-12-18T14:11:49;49.47;;;22.27;;
56043;SDS011;41912;51.022;3.664;2022-12-18T14:14:16;46.58;;;21.90;;
56043;SDS011;41912;51.022;3.664;2022-12-18T14:16:43;49.03;;;22.98;;
56043;SDS011;41912;51.022;3.664;2022-12-18T14:19:14;48.65;;;23.17;;
56043;SDS011;41912;51.022;3.664;2022-12-18T14:21:46;57.67;;;24.30;;
56043;SDS011;41912;51.022;3.664;2022-12-18T14:26:43;57.25;;;25.90;;
56043;SDS011;41912;51.022;3.664;2022-12-18T14:29:19;51.78;;;22.55;;
56043;SDS011;41912;51.022;3.664;2022-12-18T14:34:51;50.85;;;22.45;;
56043;SDS011;41912;51.022;3.664;2022-12-18T14:37:23;56.00;;;24.63;;
56043;SDS011;41912;51.022;3.664;2022-12-18T14:40:00;52.13;;;23.10;;
56043;SDS011;41912;51.022;3.664;2022-12-18T14:42:28;49.95;;;23.70;;
56043;SDS011;41912;51.022;3.664;2022-12-18T14:47:57;55.53;;;23.85;;
56043;SDS011;41912;51.022;3.664;2022-12-18T14:50:24;52.20;;;24.08;;
56043;SDS011;41912;51.022;3.664;2022-12-18T14:52:50;53.08;;;23.30;;
56043;SDS011;41912;51.022;3.664;2022-12-18T14:55:19;52.33;;;23.52;;
56043;SDS011;41912;51.022;3.664;2022-12-18T14:57:48;50.00;;;22.45;;
56043;SDS011;41912;51.022;3.664;2022-12-18T15:00:17;57.05;;;23.02;;
56043;SDS011;41912;51.022;3.664;2022-12-18T15:02:48;50.80;;;23.85;;
56043;SDS011;41912;51.022;3.664;2022-12-18T15:07:46;55.80;;;24.98;;
56043;SDS011;41912;51.022;3.664;2022-12-18T15:10:17;58.70;;;24.52;;
56043;SDS011;41912;51.022;3.664;2022-12-18T15:12:48;54.35;;;23.42;;
56043;SDS011;41912;51.022;3.664;2022-12-18T15:18:19;58.03;;;22.95;;
56043;SDS011;41912;51.022;3.664;2022-12-18T15:26:18;56.15;;;24.65;;
56043;SDS011;41912;51.022;3.664;2022-12-18T15:36:20;57.72;;;23.75;;
56043;SDS011;41912;51.022;3.664;2022-12-18T15:38:48;63.95;;;25.55;;
56043;SDS011;41912;51.022;3.664;2022-12-18T15:41:16;56.53;;;24.27;;
56043;SDS011;41912;51.022;3.664;2022-12-18T15:43:43;56.83;;;24.50;;
56043;SDS011;41912;51.022;3.664;2022-12-18T15:46:14;56.47;;;23.67;;
56043;SDS011;41912;51.022;3.664;2022-12-18T15:48:46;54.53;;;23.92;;
56043;SDS011;41912;51.022;3.664;2022-12-18T15:51:13;55.17;;;24.35;;
56043;SDS011;41912;51.022;3.664;2022-12-18T15:53:45;59.75;;;25.55;;
56043;SDS011;41912;51.022;3.664;2022-12-18T15:56:12;56.55;;;25.80;;
56043;SDS011;41912;51.022;3.664;2022-12-18T15:58:58;56.95;;;23.63;;
56043;SDS011;41912;51.022;3.664;2022-12-18T16:01:24;57.33;;;24.98;;
56043;SDS011;41912;51.022;3.664;2022-12-18T16:03:53;58.20;;;26.23;;
56043;SDS011;41912;51.022;3.664;2022-12-18T16:06:19;64.82;;;26.25;;
56043;SDS011;41912;51.022;3.664;2022-12-18T16:08:45;56.50;;;25.15;;
56043;SDS011;41912;51.022;3.664;2022-12-18T16:11:29;66.95;;;26.63;;
56043;SDS011;41912;51.022;3.664;2022-12-18T16:16:51;58.33;;;26.05;;
56043;SDS011;41912;51.022;3.664;2022-12-18T16:19:19;56.47;;;24.10;;
56043;SDS011;41912;51.022;3.664;2022-12-18T16:21:46;56.22;;;23.05;;
56043;SDS011;41912;51.022;3.664;2022-12-18T16:24:17;58.15;;;25.05;;
56043;SDS011;41912;51.022;3.664;2022-12-18T16:26:44;57.83;;;24.98;;
56043;SDS011;41912;51.022;3.664;2022-12-18T16:29:10;56.60;;;23.85;;
56043;SDS011;41912;51.022;3.664;2022-12-18T16:31:36;54.30;;;22.90;;
56043;SDS011;41912;51.022;3.664;2022-12-18T16:34:12;61.38;;;25.27;;
56043;SDS011;41912;51.022;3.664;2022-12-18T16:36:42;54.47;;;23.50;;
56043;SDS011;41912;51.022;3.664;2022-12-18T16:39:08;60.55;;;25.38;;
56043;SDS011;41912;51.022;3.664;2022-12-18T16:41:33;53.08;;;23.42;;
56043;SDS011;41912;51.022;3.664;2022-12-18T16:44:00;53.30;;;24.23;;
56043;SDS011;41912;51.022;3.664;2022-12-18T16:46:26;57.25;;;23.73;;
56043;SDS011;41912;51.022;3.664;2022-12-18T16:48:52;59.17;;;23.67;;
56043;SDS011;41912;51.022;3.664;2022-12-18T16:51:17;55.67;;;23.38;;
56043;SDS011;41912;51.022;3.664;2022-12-18T16:53:43;52.67;;;23.00;;
56043;SDS011;41912;51.022;3.664;2022-12-18T16:56:09;51.97;;;22.77;;